createdAt,value
2023-05-13T00:00:16.090Z,54.7
2023-05-13T00:05:15.947Z,54.5
2023-05-13T00:10:16.058Z,54.6
2023-05-13T00:15:16.360Z,54.6
2023-05-13T00:20:16.074Z,54.5
2023-05-13T00:25:16.117Z,54.6
2023-05-13T00:30:16.076Z,54.6
2023-05-13T00:35:16.256Z,54.6
2023-05-13T00:40:16.128Z,54.2
2023-05-13T00:45:16.133Z,54.3
2023-05-13T00:50:16.137Z,54.4
2023-05-13T00:55:16.208Z,54.4
2023-05-13T01:00:16.196Z,54.7
2023-05-13T01:05:16.218Z,54.9
2023-05-13T01:10:16.190Z,55.0
2023-05-13T01:15:16.204Z,55.1
2023-05-13T01:20:16.244Z,55.4
2023-05-13T01:25:17.511Z,55.3
2023-05-13T01:30:16.514Z,54.6
2023-05-13T01:35:16.230Z,54.8
2023-05-13T01:40:31.096Z,55.1
2023-05-13T01:45:16.185Z,54.8
2023-05-13T01:50:16.254Z,54.2
2023-05-13T01:55:16.250Z,54.6
2023-05-13T02:00:16.758Z,54.2
2023-05-13T02:05:16.196Z,54.6
2023-05-13T02:10:16.335Z,55.2
2023-05-13T02:15:16.370Z,54.5
2023-05-13T02:20:16.419Z,54.5
2023-05-13T02:25:16.528Z,55.0
2023-05-13T02:30:16.325Z,54.9
2023-05-13T02:35:16.505Z,54.6
2023-05-13T02:40:16.381Z,54.6
2023-05-13T02:45:16.440Z,54.4
2023-05-13T02:50:16.337Z,53.6
2023-05-13T02:55:16.451Z,54.8
2023-05-13T03:00:16.563Z,54.4
2023-05-13T03:05:16.496Z,55.3
2023-05-13T03:10:16.559Z,54.5
2023-05-13T03:15:16.526Z,54.5
2023-05-13T03:20:16.677Z,53.2
2023-05-13T03:25:16.486Z,53.8
2023-05-13T03:30:16.617Z,53.8
2023-05-13T03:35:16.564Z,53.5
2023-05-13T03:40:16.672Z,54.2
2023-05-13T03:45:16.536Z,53.7
2023-05-13T03:50:16.708Z,53.8
2023-05-13T03:55:16.534Z,53.9
2023-05-13T04:00:15.588Z,53.9
2023-05-13T04:05:15.589Z,53.8
2023-05-13T04:10:16.048Z,53.7
2023-05-13T04:15:15.736Z,54.5
2023-05-13T04:20:15.748Z,54.0
2023-05-13T04:25:15.831Z,53.8
2023-05-13T04:30:15.654Z,54.1
2023-05-13T04:35:15.862Z,54.1
2023-05-13T04:40:15.571Z,53.6
2023-05-13T04:45:15.716Z,53.6
2023-05-13T04:50:15.741Z,53.9
2023-05-13T04:55:15.773Z,54.1
2023-05-13T05:00:15.754Z,53.8
2023-05-13T05:05:18.230Z,53.7
2023-05-13T05:10:15.780Z,53.5
2023-05-13T05:15:16.083Z,53.8
2023-05-13T05:20:15.926Z,53.7
2023-05-13T05:25:15.802Z,53.6
2023-05-13T05:30:15.869Z,53.6
2023-05-13T05:35:15.759Z,53.6
2023-05-13T05:40:15.812Z,53.9
2023-05-13T05:45:15.897Z,53.8
2023-05-13T05:50:15.885Z,53.7
2023-05-13T05:55:15.995Z,53.6
2023-05-13T06:00:15.885Z,53.6
2023-05-13T06:05:15.751Z,53.5
2023-05-13T06:10:15.963Z,53.6
2023-05-13T06:15:15.858Z,53.5
2023-05-13T06:20:15.979Z,53.5
2023-05-13T06:25:15.885Z,53.6
2023-05-13T06:30:15.920Z,53.4
2023-05-13T06:35:15.938Z,53.0
2023-05-13T06:40:15.896Z,53.2
2023-05-13T06:45:15.965Z,53.5
2023-05-13T06:50:15.893Z,53.3
2023-05-13T06:55:16.149Z,53.3
2023-05-13T07:00:16.027Z,53.4
2023-05-13T07:05:15.932Z,53.5
2023-05-13T07:10:16.116Z,53.4
2023-05-13T07:15:16.010Z,53.3
2023-05-13T07:20:15.958Z,53.2
2023-05-13T07:25:16.166Z,52.9
2023-05-13T07:30:16.042Z,52.9
2023-05-13T07:35:16.050Z,52.8
2023-05-13T07:40:16.071Z,52.9
2023-05-13T07:45:16.117Z,53.3
2023-05-13T07:50:16.030Z,53.5
2023-05-13T07:55:16.116Z,53.4
2023-05-13T08:00:16.082Z,53.8
2023-05-13T08:05:16.100Z,54.1
2023-05-13T08:10:16.256Z,54.1
2023-05-13T08:15:16.143Z,54.7
2023-05-13T08:20:16.263Z,54.4
2023-05-13T08:25:16.177Z,54.6
2023-05-13T08:30:16.254Z,54.7
2023-05-13T08:35:16.313Z,54.7
2023-05-13T08:40:16.177Z,54.6
2023-05-13T08:45:16.147Z,55.0
2023-05-13T08:50:16.271Z,54.8
2023-05-13T08:55:16.251Z,54.6
2023-05-13T09:00:16.223Z,54.3
2023-05-13T09:05:16.283Z,54.4
2023-05-13T09:10:16.292Z,54.3
2023-05-13T09:15:16.334Z,54.3
2023-05-13T09:20:16.314Z,54.3
2023-05-13T09:25:16.404Z,54.1
2023-05-13T09:30:16.690Z,54.1
2023-05-13T09:35:16.477Z,54.1
2023-05-13T09:40:16.494Z,53.9
2023-05-13T09:45:16.442Z,54.4
2023-05-13T09:50:16.298Z,54.3
2023-05-13T09:55:16.418Z,54.5
2023-05-13T10:00:28.760Z,54.5
2023-05-13T10:05:16.312Z,55.1
2023-05-13T10:10:16.401Z,55.0
2023-05-13T10:15:16.374Z,55.2
2023-05-13T10:20:16.558Z,55.4
2023-05-13T10:25:16.578Z,55.3
2023-05-13T10:30:16.541Z,55.4
2023-05-13T10:35:16.765Z,55.6
2023-05-13T10:40:16.454Z,55.5
2023-05-13T10:45:16.592Z,55.7
2023-05-13T10:50:16.605Z,55.9
2023-05-13T10:55:16.615Z,55.6
2023-05-13T11:00:16.805Z,55.8
2023-05-13T11:05:16.546Z,55.8
2023-05-13T11:10:16.547Z,56.1
2023-05-13T11:15:16.795Z,56.2
2023-05-13T11:20:16.664Z,55.5
2023-05-13T11:25:16.581Z,55.6
2023-05-13T11:30:16.712Z,55.9
2023-05-13T11:35:16.680Z,55.7
2023-05-13T11:40:16.544Z,56.2
2023-05-13T11:45:16.615Z,56.2
2023-05-13T11:50:16.630Z,56.0
2023-05-13T11:55:16.616Z,56.1
2023-05-13T12:00:16.969Z,56.3
2023-05-13T12:05:16.708Z,56.0
2023-05-13T12:10:16.892Z,56.0
2023-05-13T12:15:16.684Z,56.1
2023-05-13T12:20:16.778Z,56.0
2023-05-13T12:25:16.688Z,56.2
2023-05-13T12:30:16.712Z,56.2
2023-05-13T12:35:16.865Z,55.9
2023-05-13T12:40:16.794Z,55.4
2023-05-13T12:45:16.762Z,55.5
2023-05-13T12:50:16.824Z,55.4
2023-05-13T12:55:16.885Z,55.9
2023-05-13T13:00:16.912Z,56.0
2023-05-13T13:05:16.785Z,55.8
2023-05-13T13:10:16.758Z,56.1
2023-05-13T13:15:16.833Z,55.9
2023-05-13T13:20:16.799Z,55.8
2023-05-13T13:25:16.894Z,55.8
2023-05-13T13:30:16.836Z,55.5
2023-05-13T13:35:16.830Z,55.7
2023-05-13T13:40:16.829Z,55.7
2023-05-13T13:45:16.890Z,55.2
2023-05-13T13:50:16.849Z,54.1
2023-05-13T13:55:17.043Z,54.1
2023-05-13T14:00:16.946Z,54.1
2023-05-13T14:05:16.980Z,53.3
2023-05-13T14:10:16.926Z,52.2
2023-05-13T14:15:16.982Z,51.6
2023-05-13T14:20:17.024Z,52.2
2023-05-13T14:25:17.026Z,53.1
2023-05-13T14:30:17.034Z,54.5
2023-05-13T14:35:17.047Z,53.7
2023-05-13T14:40:16.995Z,53.1
2023-05-13T14:45:18.503Z,53.2
2023-05-13T14:50:17.050Z,53.0
2023-05-13T14:55:17.095Z,52.0
2023-05-13T15:00:17.025Z,52.1
2023-05-13T15:05:17.029Z,52.7
2023-05-13T15:10:17.062Z,51.8
2023-05-13T15:15:17.069Z,52.6
2023-05-13T15:20:17.175Z,51.0
2023-05-13T15:25:17.088Z,52.1
2023-05-13T15:30:17.194Z,52.0
2023-05-13T15:35:17.197Z,51.8
2023-05-13T15:40:17.115Z,51.9
2023-05-13T15:45:17.256Z,53.5
2023-05-13T15:50:17.349Z,52.9
2023-05-13T15:55:17.183Z,52.2
2023-05-13T16:00:17.263Z,51.8
2023-05-13T16:05:17.245Z,51.0
2023-05-13T16:10:17.245Z,52.4
2023-05-13T16:15:17.164Z,51.0
2023-05-13T16:20:17.227Z,51.0
2023-05-13T16:25:17.234Z,49.1
2023-05-13T16:30:17.221Z,48.8
2023-05-13T16:35:17.376Z,45.3
2023-05-13T16:40:17.260Z,44.0
2023-05-13T16:45:17.265Z,44.2
2023-05-13T16:50:17.263Z,44.7
2023-05-13T16:55:17.270Z,46.8
2023-05-13T17:00:17.354Z,45.4
2023-05-13T17:05:17.321Z,48.2
2023-05-13T17:10:17.423Z,47.5
2023-05-13T17:15:17.353Z,47.1
2023-05-13T17:20:17.398Z,45.7
2023-05-13T17:25:17.360Z,44.2
2023-05-13T17:30:17.426Z,45.6
2023-05-13T17:35:17.361Z,41.9
2023-05-13T17:40:17.460Z,41.6
2023-05-13T17:45:17.552Z,44.5
2023-05-13T17:50:15.422Z,43.7
2023-05-13T17:55:15.530Z,43.5
2023-05-13T18:00:15.372Z,42.1
2023-05-13T18:05:15.327Z,43.0
2023-05-13T18:10:15.461Z,44.9
2023-05-13T18:15:15.424Z,46.0
2023-05-13T18:20:15.461Z,45.8
2023-05-13T18:25:15.467Z,44.2
2023-05-13T18:30:15.452Z,46.2
2023-05-13T18:35:15.530Z,46.2
2023-05-13T18:40:15.556Z,44.2
2023-05-13T18:45:15.549Z,44.2
2023-05-13T18:50:15.664Z,45.3
2023-05-13T18:55:15.530Z,45.0
2023-05-13T19:00:15.511Z,45.8
2023-05-13T19:05:15.642Z,45.1
2023-05-13T19:10:15.550Z,43.1
2023-05-13T19:15:15.761Z,46.1
2023-05-13T19:20:15.889Z,47.5
2023-05-13T19:25:15.622Z,48.3
2023-05-13T19:30:15.618Z,45.0
2023-05-13T19:35:15.767Z,43.9
2023-05-13T19:40:15.719Z,45.7
2023-05-13T19:45:15.766Z,46.9
2023-05-13T19:50:15.687Z,46.4
2023-05-13T19:55:15.634Z,45.4
2023-05-13T20:00:15.679Z,48.5
2023-05-13T20:05:15.752Z,48.6
2023-05-13T20:10:15.762Z,45.7
2023-05-13T20:15:17.821Z,44.7
2023-05-13T20:20:15.730Z,44.5
2023-05-13T20:25:15.836Z,46.2
2023-05-13T20:30:15.823Z,46.0
2023-05-13T20:35:15.956Z,46.6
2023-05-13T20:40:16.002Z,48.8
2023-05-13T20:45:15.745Z,48.8
2023-05-13T20:50:15.800Z,49.2
2023-05-13T20:55:15.846Z,46.6
2023-05-13T21:00:15.967Z,47.7
2023-05-13T21:05:15.884Z,48.9
2023-05-13T21:10:15.824Z,46.6
2023-05-13T21:15:15.998Z,46.6
2023-05-13T21:20:15.963Z,48.0
2023-05-13T21:25:15.889Z,47.8
2023-05-13T21:30:15.855Z,47.2
2023-05-13T21:35:16.235Z,44.2
2023-05-13T21:40:15.888Z,44.1
2023-05-13T21:45:15.888Z,45.6
2023-05-13T21:50:15.985Z,47.8
2023-05-13T21:55:15.892Z,44.7
2023-05-13T22:00:15.928Z,44.8
2023-05-13T22:05:19.064Z,45.6
2023-05-13T22:10:16.017Z,47.8
2023-05-13T22:15:16.349Z,51.5
2023-05-13T22:20:15.994Z,49.4
2023-05-13T22:25:16.009Z,50.7
2023-05-13T22:30:16.046Z,51.4
2023-05-13T22:35:16.103Z,52.9
2023-05-13T22:40:16.113Z,52.7
2023-05-13T22:45:16.098Z,51.6
2023-05-13T22:50:16.069Z,53.0
2023-05-13T22:55:16.089Z,52.5
2023-05-13T23:00:16.058Z,53.0
2023-05-13T23:05:16.097Z,53.8
2023-05-13T23:10:16.203Z,53.3
2023-05-13T23:15:16.343Z,52.6
2023-05-13T23:20:16.171Z,52.4
2023-05-13T23:25:16.151Z,52.5
2023-05-13T23:30:16.267Z,51.7
2023-05-13T23:35:16.216Z,52.4
2023-05-13T23:40:16.193Z,52.2
2023-05-13T23:45:16.228Z,52.0
2023-05-13T23:50:16.194Z,52.6
2023-05-13T23:55:16.178Z,51.8
